Terminal Aerodrome Forecast
Issued by NWS Louisville, KY

Home | Current Version | Previous Version | Text Only | Print | Product List | Glossary Off
Versions: 1 2 3 4 5 6 7 8 9 10 11 12 13 14 15 16

076
FTUS43 KLMK 231120
TAFBWG
TAF
KBWG 231120Z 2312/2412 32015G23KT P6SM VCSH BKN015
     FM231500 33014G20KT P6SM BKN008
     FM240000 30011G17KT P6SM BKN015
     FM240900 29003KT P6SM BKN025=

USA.gov is the U.S. government's official web portal to all federal, state and local government web resources and services.